Time;durP1;ratioP1;P1;durP2;ratioP2;P2;SDS_P1;SDS_P2;PMS_P1;PMS_P2;Temp;Humidity;BMP_temperature;BMP_pressure;BME280_temperature;BME280_humidity;BME280_pressure;Samples;Min_cycle;Max_cycle;Signal;HPM_P1;HPM_P2
2023/04/28 00:01:40;;;;;;;4.28;3.65;;;;;;;13.20;61.06;98109.22;7395376;19;19943;-75
2023/04/28 00:04:07;;;;;;;5.20;3.97;;;;;;;13.23;60.68;98109.66;7394020;19;19914;-76
2023/04/28 00:06:35;;;;;;;4.03;3.38;;;;;;;13.28;60.89;98117.97;7394576;19;19957;-75
2023/04/28 00:09:02;;;;;;;4.97;3.53;;;;;;;13.26;60.64;98114.66;7396129;19;19926;-77
2023/04/28 00:11:29;;;;;;;5.80;4.20;;;;;;;13.32;60.86;98108.63;7388109;19;20004;-76
2023/04/28 00:13:56;;;;;;;4.93;3.47;;;;;;;13.34;60.35;98097.81;7397320;19;19919;-77
2023/04/28 00:16:23;;;;;;;5.68;3.63;;;;;;;13.36;59.53;98106.44;7393748;19;19922;-76
2023/04/28 00:18:50;;;;;;;3.70;3.22;;;;;;;13.41;60.88;98103.25;7399019;19;20009;-75
2023/04/28 00:21:16;;;;;;;3.95;3.20;;;;;;;13.43;60.62;98088.78;7386212;19;19915;-76
2023/04/28 00:23:43;;;;;;;6.95;4.25;;;;;;;13.42;60.69;98096.91;7396819;19;20318;-76
2023/04/28 00:26:11;;;;;;;4.32;3.95;;;;;;;13.44;60.02;98101.03;7395387;19;20253;-77
2023/04/28 00:28:40;;;;;;;4.05;3.42;;;;;;;13.47;60.89;98100.69;7393852;19;20422;-76
2023/04/28 00:31:14;;;;;;;4.78;3.95;;;;;;;13.53;60.90;98102.63;7391287;19;19925;-75
2023/04/28 00:33:42;;;;;;;4.45;3.33;;;;;;;13.53;60.38;98101.78;7391268;19;19911;-76
2023/04/28 00:36:09;;;;;;;3.50;3.20;;;;;;;13.55;60.49;98086.47;7392456;19;20057;-76
2023/04/28 00:38:36;;;;;;;5.30;3.53;;;;;;;13.53;60.69;98073.41;7387977;19;19914;-76
2023/04/28 00:41:03;;;;;;;4.57;3.55;;;;;;;13.52;60.54;98081.53;7385931;19;20025;-76
2023/04/28 00:43:30;;;;;;;7.28;4.05;;;;;;;13.49;61.73;98089.88;7390370;19;20008;-76
2023/04/28 00:45:57;;;;;;;4.38;3.58;;;;;;;13.53;61.39;98097.31;7393376;19;19915;-77
2023/04/28 00:48:24;;;;;;;5.30;3.20;;;;;;;13.51;61.79;98091.34;7384914;19;19919;-76
2023/04/28 00:50:51;;;;;;;4.13;3.72;;;;;;;13.49;62.48;98082.72;7401615;19;20487;-75
2023/04/28 00:53:17;;;;;;;3.50;3.20;;;;;;;13.46;62.49;98076.97;7401159;19;19910;-75
2023/04/28 00:55:45;;;;;;;3.92;3.13;;;;;;;13.43;62.30;98083.47;7387447;19;19922;-76
2023/04/28 00:58:12;;;;;;;4.32;3.40;;;;;;;13.37;62.53;98076.19;7389028;19;19923;-75
2023/04/28 01:00:39;;;;;;;5.50;3.25;;;;;;;13.34;62.85;98076.56;7385753;19;19919;-77
2023/04/28 01:03:06;;;;;;;3.75;2.83;;;;;;;13.30;61.54;98069.97;7391037;19;19919;-75
2023/04/28 01:05:33;;;;;;;3.85;2.88;;;;;;;13.28;62.09;98058.69;7393930;19;19926;-77
2023/04/28 01:08:00;;;;;;;4.82;3.13;;;;;;;13.32;62.31;98068.78;7391658;19;19919;-76
2023/04/28 01:10:27;;;;;;;3.80;3.15;;;;;;;13.34;62.56;98068.59;7379552;19;20389;-76
2023/04/28 01:12:56;;;;;;;4.55;3.38;;;;;;;13.34;62.28;98068.59;7390706;19;20396;-77
2023/04/28 01:15:23;;;;;;;4.57;3.38;;;;;;;13.34;62.75;98066.75;7381893;19;19925;-76
2023/04/28 01:17:52;;;;;;;4.97;3.75;;;;;;;13.30;62.00;98067.31;7392838;19;19914;-77
2023/04/28 01:20:19;;;;;;;3.55;3.13;;;;;;;13.24;61.81;98063.50;7388872;19;20308;-77
2023/04/28 01:22:46;;;;;;;4.75;3.33;;;;;;;13.27;61.78;98057.03;7395915;19;19918;-77
2023/04/28 01:25:13;;;;;;;3.97;3.30;;;;;;;13.12;62.56;98052.50;7391638;19;19918;-77
2023/04/28 01:27:40;;;;;;;6.07;3.88;;;;;;;13.11;62.73;98050.00;7392001;19;19943;-77
2023/04/28 01:30:10;;;;;;;5.57;4.88;;;;;;;13.02;61.97;98051.91;7393511;19;20262;-77
2023/04/28 01:32:37;;;;;;;5.93;3.35;;;;;;;12.98;62.09;98047.97;7393886;19;19919;-77
2023/04/28 01:35:04;;;;;;;6.88;3.55;;;;;;;12.93;62.53;98040.53;7400798;19;19960;-75
2023/04/28 01:37:33;;;;;;;4.60;3.25;;;;;;;12.90;62.05;98037.41;7395816;19;19919;-77
2023/04/28 01:40:00;;;;;;;5.18;3.60;;;;;;;12.95;63.06;98032.38;7394362;19;19948;-75
2023/04/28 01:42:27;;;;;;;4.50;3.08;;;;;;;12.95;62.91;98027.91;7398306;19;19915;-76
2023/04/28 01:44:53;;;;;;;4.80;3.85;;;;;;;13.09;61.75;98034.25;7401008;19;19944;-75
2023/04/28 01:47:20;;;;;;;4.82;3.13;;;;;;;13.22;61.54;98038.97;7394701;19;19939;-75
2023/04/28 01:49:48;;;;;;;4.95;3.08;;;;;;;13.28;62.10;98032.13;7399183;19;19934;-75
2023/04/28 01:52:15;;;;;;;4.13;3.17;;;;;;;13.27;61.97;98031.31;7403892;19;19926;-75
2023/04/28 01:54:42;;;;;;;3.90;3.35;;;;;;;13.29;62.38;98039.91;7395960;19;19926;-75
2023/04/28 01:57:09;;;;;;;4.30;3.33;;;;;;;13.29;63.34;98039.91;7399528;19;19927;-75
2023/04/28 01:59:36;;;;;;;4.75;3.40;;;;;;;13.26;63.44;98024.31;7396477;19;19922;-77
2023/04/28 02:02:04;;;;;;;6.25;3.55;;;;;;;13.25;63.76;98027.16;7397993;19;19918;-77
2023/04/28 02:04:32;;;;;;;4.75;2.75;;;;;;;13.22;64.59;98027.47;7393399;19;19929;-77
2023/04/28 02:06:59;;;;;;;4.47;3.30;;;;;;;13.15;65.16;98030.88;7398257;19;19927;-77
2023/04/28 02:09:25;;;;;;;4.80;3.05;;;;;;;13.13;65.01;98024.09;7389860;19;19925;-77
2023/04/28 02:11:52;;;;;;;4.18;3.75;;;;;;;13.11;65.41;98018.13;7398847;19;19965;-77
2023/04/28 02:14:20;;;;;;;5.32;3.10;;;;;;;13.15;65.66;98012.28;7395876;19;19930;-77
2023/04/28 02:16:46;;;;;;;5.82;3.88;;;;;;;13.13;65.03;98014.28;7402065;19;19910;-77
2023/04/28 02:19:14;;;;;;;4.00;3.42;;;;;;;13.10;65.62;98017.31;7389045;19;19943;-77
2023/04/28 02:21:41;;;;;;;6.45;3.65;;;;;;;13.08;64.99;98015.84;7385480;19;19947;-77
2023/04/28 02:24:08;;;;;;;4.38;3.60;;;;;;;13.04;65.33;98012.72;7391363;19;19911;-77
2023/04/28 02:26:35;;;;;;;6.85;6.15;;;;;;;13.02;65.34;98016.56;7382433;19;20300;-77
2023/04/28 02:29:04;;;;;;;4.78;3.33;;;;;;;12.96;66.02;98013.63;7391321;19;19915;-77
2023/04/28 02:31:31;;;;;;;5.03;4.53;;;;;;;12.96;66.68;98007.50;7387031;19;20291;-77
2023/04/28 02:33:58;;;;;;;5.28;4.03;;;;;;;12.93;67.36;98005.19;7393414;19;19947;-77
2023/04/28 02:36:26;;;;;;;4.72;3.55;;;;;;;12.95;66.13;98008.47;7391624;19;20347;-77
2023/04/28 02:38:53;;;;;;;4.13;3.72;;;;;;;12.93;66.91;98003.38;7397727;19;19929;-77
2023/04/28 02:41:20;;;;;;;6.18;3.60;;;;;;;12.96;66.86;97989.72;7393327;19;19915;-77
2023/04/28 02:43:47;;;;;;;4.72;3.38;;;;;;;12.98;66.93;97999.31;7396145;19;20371;-77
2023/04/28 02:46:13;;;;;;;4.07;3.50;;;;;;;13.01;66.96;98010.44;7394526;19;19919;-77
2023/04/28 02:48:40;;;;;;;3.75;2.90;;;;;;;12.99;66.19;98003.66;7392767;19;19923;-77
2023/04/28 02:51:09;;;;;;;5.38;3.83;;;;;;;13.01;66.08;97999.81;7394335;19;19910;-77
2023/04/28 02:53:36;;;;;;;3.92;3.53;;;;;;;13.04;66.03;97998.63;7392754;19;19959;-77
2023/04/28 02:56:05;;;;;;;5.07;3.38;;;;;;;13.06;66.45;98001.91;7396906;19;19921;-77
2023/04/28 02:58:32;;;;;;;4.22;3.72;;;;;;;13.09;66.50;98002.38;7394880;19;20343;-77
2023/04/28 03:01:00;;;;;;;4.10;3.17;;;;;;;13.09;66.17;98002.38;7389196;19;19918;-77
2023/04/28 03:03:26;;;;;;;4.72;3.08;;;;;;;13.09;64.65;98007.69;7381727;19;19951;-77
2023/04/28 03:05:55;;;;;;;5.00;3.70;;;;;;;13.13;65.50;98011.63;7385087;19;19930;-77
2023/04/28 03:08:22;;;;;;;4.35;3.75;;;;;;;13.09;65.94;98022.81;7382571;19;19922;-77
2023/04/28 03:10:49;;;;;;;4.60;3.38;;;;;;;13.04;66.71;98026.00;7381397;19;19923;-76
2023/04/28 03:13:16;;;;;;;4.40;4.00;;;;;;;13.00;67.33;98022.03;7384786;19;19999;-76
2023/04/28 03:15:43;;;;;;;4.22;3.38;;;;;;;12.98;68.65;98032.03;7390867;19;19946;-76
2023/04/28 03:18:10;;;;;;;4.78;3.45;;;;;;;12.91;68.21;98026.63;7394785;19;19914;-76
2023/04/28 03:20:37;;;;;;;5.10;4.25;;;;;;;12.84;68.90;98022.19;7388266;19;19918;-76
2023/04/28 03:23:04;;;;;;;5.18;3.53;;;;;;;12.72;69.18;98019.97;7387735;19;19923;-76
2023/04/28 03:25:31;;;;;;;6.70;5.13;;;;;;;12.66;70.17;98012.69;7382558;19;19918;-77
2023/04/28 03:27:58;;;;;;;6.82;4.20;;;;;;;12.62;70.87;98010.59;7394401;19;19941;-77
2023/04/28 03:30:24;;;;;;;7.72;4.90;;;;;;;12.60;71.61;98000.16;7387602;19;19918;-77
2023/04/28 03:32:51;;;;;;;6.43;5.75;;;;;;;12.60;72.05;97992.19;7391005;19;20580;-77
2023/04/28 03:35:18;;;;;;;5.80;4.47;;;;;;;12.60;72.49;97975.44;7386673;19;19918;-76
2023/04/28 03:37:45;;;;;;;6.55;5.85;;;;;;;12.58;72.78;97982.75;7388845;19;20196;-77
2023/04/28 03:40:12;;;;;;;6.25;4.60;;;;;;;12.56;72.76;97964.38;7395474;19;20010;-77
2023/04/28 03:43:11;;;;;;;7.88;4.78;;;;;;;12.51;73.46;97985.31;7395534;19;20008;-77
2023/04/28 03:45:44;;;;;;;5.93;4.80;;;;;;;12.52;72.97;97993.06;7390021;19;19948;-77
2023/04/28 03:48:11;;;;;;;6.85;5.13;;;;;;;12.53;73.56;97985.94;7393968;19;19994;-77
2023/04/28 03:50:39;;;;;;;5.82;5.03;;;;;;;12.48;74.12;97986.47;7384684;19;19910;-77
2023/04/28 03:53:07;;;;;;;7.32;5.43;;;;;;;12.48;74.85;97985.63;7391465;19;19923;-77
2023/04/28 03:55:34;;;;;;;6.00;5.00;;;;;;;12.49;75.20;97987.31;7390188;19;19943;-78
2023/04/28 03:58:01;;;;;;;6.10;4.82;;;;;;;12.53;74.88;97975.31;7398827;19;19922;-78
2023/04/28 04:00:28;;;;;;;6.70;5.10;;;;;;;12.56;74.49;97969.69;7409073;19;19987;-78
2023/04/28 04:02:55;;;;;;;7.45;4.72;;;;;;;12.57;74.38;97971.31;7400873;19;19922;-77
2023/04/28 04:05:22;;;;;;;7.45;5.78;;;;;;;12.54;74.14;97968.22;7388794;19;20705;-77
2023/04/28 04:07:49;;;;;;;7.40;5.03;;;;;;;12.48;73.97;97970.56;7386998;19;19929;-77
2023/04/28 04:10:16;;;;;;;6.10;4.90;;;;;;;12.46;74.29;97969.91;7393955;19;20361;-77
2023/04/28 04:12:43;;;;;;;6.15;5.30;;;;;;;12.39;74.39;97974.28;7388275;19;19922;-77
2023/04/28 04:15:11;;;;;;;7.88;5.40;;;;;;;12.41;74.55;97974.09;7393840;19;19915;-77
2023/04/28 04:17:38;;;;;;;6.40;5.80;;;;;;;12.42;74.58;97968.59;7390528;19;19943;-78
2023/04/28 04:20:06;;;;;;;8.38;5.60;;;;;;;12.38;74.60;97962.00;7396755;19;19962;-77
2023/04/28 04:22:33;;;;;;;6.63;4.40;;;;;;;12.38;75.00;97962.00;7398745;19;19915;-79
2023/04/28 04:25:00;;;;;;;5.22;4.35;;;;;;;12.45;74.71;97965.63;7400562;19;19915;-78
2023/04/28 04:27:27;;;;;;;4.88;3.83;;;;;;;12.47;74.50;97962.78;7396919;19;19925;-78
2023/04/28 04:29:54;;;;;;;6.38;4.43;;;;;;;12.47;74.43;97962.78;7401074;19;20452;-79
2023/04/28 04:32:21;;;;;;;6.93;5.15;;;;;;;12.47;74.21;97965.41;7405287;19;20614;-77
2023/04/28 04:34:48;;;;;;;6.20;5.63;;;;;;;12.46;74.46;97966.44;7400748;19;20320;-78
2023/04/28 04:37:15;;;;;;;6.18;4.47;;;;;;;12.46;73.91;97969.09;7404038;19;19987;-78
2023/04/28 04:39:49;;;;;;;7.18;4.85;;;;;;;12.47;74.59;97973.38;7398859;19;19922;-78
2023/04/28 04:42:16;;;;;;;5.20;4.60;;;;;;;12.46;74.90;97971.75;7401369;19;19946;-78
2023/04/28 04:44:59;;;;;;;5.53;4.22;;;;;;;12.47;74.90;97973.38;7403916;19;19961;-79
2023/04/28 04:47:28;;;;;;;6.82;4.57;;;;;;;12.49;74.89;97974.03;7401662;19;19907;-78
2023/04/28 04:49:55;;;;;;;7.18;5.03;;;;;;;12.52;74.20;97973.69;7405294;19;19911;-78
2023/04/28 04:52:22;;;;;;;9.23;5.55;;;;;;;12.41;74.84;97966.97;7409258;19;19930;-78
2023/04/28 04:54:50;;;;;;;6.65;4.53;;;;;;;12.39;75.46;97965.50;7410322;19;19978;-78
2023/04/28 04:57:17;;;;;;;6.50;4.65;;;;;;;12.41;75.57;97974.09;7412024;19;20109;-78
2023/04/28 05:00:03;;;;;;;6.30;5.60;;;;;;;12.41;75.67;97968.78;7408280;19;20369;-78
2023/04/28 05:02:30;;;;;;;6.97;4.80;;;;;;;12.41;75.58;97976.75;7404862;19;19926;-78
2023/04/28 05:04:58;;;;;;;6.20;5.15;;;;;;;12.40;75.93;97964.47;7399815;19;19931;-79
2023/04/28 05:07:47;;;;;;;8.73;5.88;;;;;;;12.41;76.26;97955.53;7399200;19;19921;-79
2023/04/28 05:10:14;;;;;;;8.13;5.85;;;;;;;12.42;76.60;97958.00;7396159;19;19943;-79
2023/04/28 05:12:43;;;;;;;7.85;7.05;;;;;;;12.45;76.57;97949.69;7395830;19;20263;-80
2023/04/28 05:15:15;;;;;;;5.82;4.75;;;;;;;12.50;76.51;97943.84;7390394;19;19919;-79
2023/04/28 05:17:51;;;;;;;6.45;4.80;;;;;;;12.53;76.56;97956.75;7392338;19;19928;-79
2023/04/28 05:20:19;;;;;;;6.47;5.28;;;;;;;12.56;76.70;97958.22;7394002;19;19914;-79
2023/04/28 05:22:46;;;;;;;5.38;4.40;;;;;;;12.58;76.76;97959.69;7387598;19;20623;-79
2023/04/28 05:25:13;;;;;;;6.55;5.38;;;;;;;12.62;76.90;97966.31;7392530;19;19926;-78
2023/04/28 05:27:39;;;;;;;7.45;4.53;;;;;;;12.59;77.20;97968.50;7389164;19;20478;-79
2023/04/28 05:30:09;;;;;;;5.72;4.65;;;;;;;12.64;76.82;97961.66;7390914;19;19918;-80
2023/04/28 05:32:36;;;;;;;6.40;5.25;;;;;;;12.65;76.41;97968.59;7391731;19;19915;-79
2023/04/28 05:35:04;;;;;;;5.50;4.28;;;;;;;12.61;76.14;97954.06;7394866;19;19939;-80
2023/04/28 05:37:31;;;;;;;5.68;4.55;;;;;;;12.59;75.83;97952.56;7395308;19;19933;-79
2023/04/28 05:39:57;;;;;;;5.63;4.82;;;;;;;12.56;76.11;97959.06;7392044;19;19915;-79
2023/04/28 05:42:24;;;;;;;8.60;4.70;;;;;;;12.56;76.72;97958.22;7403470;19;20382;-79
2023/04/28 05:44:51;;;;;;;7.22;4.88;;;;;;;12.62;77.15;97968.13;7395946;19;19939;-78
2023/04/28 05:47:17;;;;;;;5.53;4.70;;;;;;;12.66;77.80;97966.75;7395379;19;19947;-79
2023/04/28 05:49:44;;;;;;;10.50;5.80;;;;;;;12.74;77.75;97962.22;7387461;19;19929;-80
2023/04/28 05:52:11;;;;;;;6.25;4.57;;;;;;;12.79;78.02;97966.97;7393472;19;19907;-78
2023/04/28 05:54:38;;;;;;;6.85;4.60;;;;;;;12.81;78.88;97972.13;7391954;19;20575;-79
2023/04/28 05:57:04;;;;;;;6.80;4.45;;;;;;;12.88;78.54;97970.41;7393619;19;19929;-79
2023/04/28 05:59:31;;;;;;;8.57;5.15;;;;;;;12.91;78.57;97967.38;7387902;19;19906;-79
2023/04/28 06:01:59;;;;;;;5.53;4.72;;;;;;;12.94;78.46;97973.16;7386144;19;19922;-79
2023/04/28 06:04:26;;;;;;;7.65;4.78;;;;;;;12.95;78.44;97966.84;7393511;19;19923;-77
2023/04/28 06:06:54;;;;;;;7.70;4.78;;;;;;;12.97;78.59;97961.34;7384809;19;19922;-76
2023/04/28 06:09:21;;;;;;;5.63;4.78;;;;;;;12.97;78.64;97971.97;7380610;19;19927;-76
2023/04/28 06:11:47;;;;;;;7.75;5.05;;;;;;;12.92;79.23;97964.53;7380958;19;19957;-76
2023/04/28 06:14:15;;;;;;;5.20;4.70;;;;;;;12.95;79.23;97963.34;7381422;19;19956;-76
2023/04/28 06:16:42;;;;;;;5.25;3.92;;;;;;;12.93;79.48;97954.75;7377874;19;20002;-77
2023/04/28 06:19:09;;;;;;;6.97;4.65;;;;;;;12.94;79.83;97957.22;7385630;19;20489;-77
2023/04/28 06:21:36;;;;;;;8.57;5.50;;;;;;;12.96;79.99;97965.00;7381172;19;20474;-77
2023/04/28 06:24:02;;;;;;;6.90;4.78;;;;;;;12.99;80.00;97966.47;7387350;19;19931;-77
2023/04/28 06:26:29;;;;;;;6.88;4.45;;;;;;;12.97;80.29;97961.34;7380105;19;19930;-77
2023/04/28 06:28:56;;;;;;;7.78;5.22;;;;;;;13.05;79.98;97958.59;7368205;19;20704;-77
2023/04/28 06:31:23;;;;;;;7.35;6.30;;;;;;;13.10;80.14;97956.22;7377453;19;20306;-76
2023/04/28 06:33:52;;;;;;;5.93;4.60;;;;;;;13.13;80.28;97958.50;7380956;19;19919;-76
2023/04/28 06:36:21;;;;;;;7.57;4.80;;;;;;;13.17;80.34;97959.00;7383293;19;19919;-77
2023/04/28 06:38:48;;;;;;;6.47;5.00;;;;;;;13.17;80.65;97951.03;7380238;19;19918;-77
2023/04/28 06:41:15;;;;;;;5.07;4.47;;;;;;;13.20;80.87;97953.31;7389950;19;19926;-78
2023/04/28 06:43:45;;;;;;;5.65;4.40;;;;;;;13.20;80.74;97944.53;7389025;19;19922;-78
2023/04/28 06:46:27;;;;;;;6.25;4.80;;;;;;;13.21;80.56;97940.84;7392801;19;19914;-77
2023/04/28 06:48:55;;;;;;;6.55;4.68;;;;;;;13.23;80.91;97944.16;7390382;19;19930;-78
2023/04/28 06:51:22;;;;;;;6.85;5.18;;;;;;;13.24;80.69;97943.94;7392066;19;19910;-77
2023/04/28 06:53:51;;;;;;;6.45;4.40;;;;;;;13.26;80.59;97946.44;7395926;19;19918;-78
2023/04/28 06:56:19;;;;;;;6.35;4.93;;;;;;;13.24;80.81;97937.81;7393617;19;19914;-78
2023/04/28 06:58:47;;;;;;;8.07;4.20;;;;;;;13.24;80.76;97943.94;7393236;19;19918;-78
2023/04/28 07:01:13;;;;;;;6.90;4.32;;;;;;;13.24;80.89;97932.50;7392390;19;19922;-78
2023/04/28 07:03:40;;;;;;;7.72;4.40;;;;;;;13.18;81.05;97932.22;7392626;19;19918;-78
2023/04/28 07:06:07;;;;;;;6.05;4.97;;;;;;;13.25;80.91;97928.84;7390374;19;20341;-79
2023/04/28 07:08:35;;;;;;;6.38;4.10;;;;;;;13.26;80.84;97934.00;7391772;19;19918;-79
2023/04/28 07:11:03;;;;;;;5.70;4.15;;;;;;;13.30;80.77;97934.47;7389900;19;19935;-79
2023/04/28 07:13:31;;;;;;;6.88;4.50;;;;;;;13.31;80.92;97925.50;7395484;19;19922;-78
2023/04/28 07:15:58;;;;;;;5.60;4.40;;;;;;;13.34;80.94;97928.59;7393895;19;19939;-78
2023/04/28 07:18:24;;;;;;;5.78;4.53;;;;;;;13.34;81.18;97930.44;7393803;19;19933;-78
2023/04/28 07:20:51;;;;;;;6.88;4.75;;;;;;;13.35;81.22;97918.81;7387795;19;19939;-78
2023/04/28 07:23:18;;;;;;;7.88;6.00;;;;;;;13.40;80.95;97927.03;7393080;19;20574;-79
2023/04/28 07:25:45;;;;;;;7.65;4.75;;;;;;;13.41;81.07;97920.72;7388267;19;19947;-79
2023/04/28 07:28:13;;;;;;;7.07;4.50;;;;;;;13.44;81.07;97930.97;7392340;19;19910;-78
2023/04/28 07:30:39;;;;;;;4.90;4.40;;;;;;;13.50;81.04;97916.94;7383380;19;20355;-77
2023/04/28 07:33:06;;;;;;;6.30;4.43;;;;;;;13.51;81.12;97918.59;7387275;19;19926;-77
2023/04/28 07:35:33;;;;;;;6.88;5.28;;;;;;;13.47;81.39;97919.97;7383613;19;19922;-77
2023/04/28 07:38:01;;;;;;;6.65;4.22;;;;;;;13.55;81.23;97921.69;7383445;19;20361;-77
2023/04/28 07:40:28;;;;;;;6.28;4.43;;;;;;;13.58;81.09;97913.34;7374408;19;19915;-77
2023/04/28 07:42:54;;;;;;;6.95;4.72;;;;;;;13.65;81.28;97911.59;7379767;19;20348;-77
2023/04/28 07:45:21;;;;;;;5.95;4.35;;;;;;;13.73;81.15;97908.84;7386443;19;19921;-77
2023/04/28 07:47:48;;;;;;;6.25;4.65;;;;;;;13.72;81.29;97906.38;7379745;19;19922;-77
2023/04/28 07:50:16;;;;;;;13.07;8.57;;;;;;;13.68;81.86;97916.53;7381986;19;19914;-77
2023/04/28 07:52:43;;;;;;;8.70;4.93;;;;;;;13.73;81.48;97916.81;7383366;19;20730;-78
2023/04/28 07:55:10;;;;;;;6.90;5.28;;;;;;;13.87;80.86;97920.44;7391829;19;19918;-78
2023/04/28 07:57:36;;;;;;;10.93;7.15;;;;;;;13.94;81.12;97925.84;7395198;19;19911;-78
2023/04/28 08:00:04;;;;;;;8.50;7.18;;;;;;;13.94;80.76;97929.31;7397307;19;20288;-78
2023/04/28 08:02:37;;;;;;;7.05;5.00;;;;;;;13.94;80.96;97937.31;7392109;19;21390;-79
2023/04/28 08:05:05;;;;;;;9.13;6.10;;;;;;;13.94;80.98;97947.94;7388596;19;19914;-79
2023/04/28 08:07:33;;;;;;;7.93;5.18;;;;;;;13.78;81.29;97954.31;7395687;19;19926;-79
2023/04/28 08:10:00;;;;;;;9.25;5.43;;;;;;;13.69;81.35;97943.94;7387556;19;19911;-78
2023/04/28 08:12:27;;;;;;;7.10;5.05;;;;;;;13.68;81.36;97937.00;7388825;19;19961;-79
2023/04/28 08:14:54;;;;;;;7.40;5.53;;;;;;;13.68;81.63;97952.94;7389573;19;20682;-78
2023/04/28 08:17:20;;;;;;;7.85;5.53;;;;;;;13.72;81.78;97956.91;7391051;19;19947;-79
2023/04/28 08:19:47;;;;;;;10.63;6.55;;;;;;;13.74;81.65;97970.81;7387455;19;19918;-79
2023/04/28 08:22:14;;;;;;;8.45;5.45;;;;;;;13.79;81.64;97979.03;7387302;19;19957;-79
2023/04/28 08:24:41;;;;;;;8.02;5.57;;;;;;;13.81;81.64;97974.38;7384935;19;19918;-79
2023/04/28 08:27:08;;;;;;;7.65;5.07;;;;;;;13.83;81.99;97967.84;7399090;19;19918;-79
2023/04/28 08:29:34;;;;;;;7.97;5.80;;;;;;;13.92;81.64;97976.53;7393521;19;19966;-80
2023/04/28 08:32:01;;;;;;;11.48;6.72;;;;;;;13.99;81.84;97981.97;7396090;19;19910;-79
2023/04/28 08:34:28;;;;;;;9.18;7.28;;;;;;;14.02;81.76;97966.44;7397357;19;19918;-80
2023/04/28 08:36:55;;;;;;;11.77;8.43;;;;;;;14.10;81.91;97960.19;7393968;19;19926;-79
2023/04/28 08:39:22;;;;;;;9.63;6.97;;;;;;;14.14;82.04;97966.78;7398081;19;19915;-80
2023/04/28 08:41:49;;;;;;;11.73;6.40;;;;;;;14.04;82.38;97960.94;7393355;19;19922;-80
2023/04/28 08:44:17;;;;;;;8.48;5.68;;;;;;;14.07;82.65;97965.06;7401720;19;19922;-81
2023/04/28 08:46:45;;;;;;;7.03;5.13;;;;;;;14.13;82.60;97965.13;7400251;19;19919;-80
2023/04/28 08:49:17;;;;;;;9.27;5.60;;;;;;;14.20;82.62;97962.53;7397893;19;20712;-79
2023/04/28 08:51:49;;;;;;;6.22;4.55;;;;;;;14.29;82.29;97972.03;7396848;19;20953;-79
2023/04/28 08:54:16;;;;;;;9.20;5.65;;;;;;;14.31;82.57;97979.84;7398784;19;19939;-79
2023/04/28 08:56:51;;;;;;;7.57;5.13;;;;;;;14.24;83.04;97980.59;7386930;19;20426;-79
2023/04/28 08:59:18;;;;;;;8.02;5.65;;;;;;;14.38;82.61;97991.38;7396671;19;19922;-79
2023/04/28 09:01:48;;;;;;;6.45;5.68;;;;;;;14.43;82.30;97995.13;7390319;19;20467;-79
2023/04/28 09:04:16;;;;;;;6.72;5.22;;;;;;;14.42;82.88;97990.78;7394590;19;20033;-78
2023/04/28 09:06:45;;;;;;;7.38;6.20;;;;;;;14.46;83.25;97994.75;7394623;19;19914;-78
2023/04/28 09:09:19;;;;;;;8.00;5.40;;;;;;;14.60;82.90;97978.94;7393408;19;20300;-79
2023/04/28 09:12:01;;;;;;;6.68;5.22;;;;;;;14.68;83.09;97997.44;7394497;19;19915;-78
2023/04/28 09:14:31;;;;;;;9.30;6.50;;;;;;;14.75;82.55;97995.66;7398306;19;19937;-78
2023/04/28 09:16:58;;;;;;;7.38;5.72;;;;;;;14.73;82.62;97983.56;7387548;19;19926;-78
2023/04/28 09:19:36;;;;;;;8.48;5.28;;;;;;;14.71;82.73;97986.38;7393372;19;19919;-77
2023/04/28 09:22:04;;;;;;;7.20;5.78;;;;;;;14.72;82.70;97993.38;7388414;19;19915;-77
2023/04/28 09:24:51;;;;;;;7.88;6.00;;;;;;;14.77;82.64;98001.63;7386201;19;19922;-77
2023/04/28 09:27:25;;;;;;;6.97;5.63;;;;;;;14.83;82.65;97995.53;7384182;19;19939;-77
2023/04/28 09:29:53;;;;;;;7.68;5.85;;;;;;;14.78;82.34;97997.94;7382047;19;19926;-77
2023/04/28 09:32:21;;;;;;;6.80;4.90;;;;;;;14.82;82.32;98001.03;7390265;19;19914;-77
2023/04/28 09:34:55;;;;;;;6.93;5.40;;;;;;;14.82;82.44;97991.19;7385714;19;20596;-77
2023/04/28 09:37:24;;;;;;;6.95;5.07;;;;;;;14.90;82.89;98000.88;7384580;19;19914;-77
2023/04/28 09:39:53;;;;;;;7.68;5.45;;;;;;;14.91;82.67;97998.03;7378539;19;19927;-77
2023/04/28 09:42:36;;;;;;;7.88;6.10;;;;;;;14.92;82.92;97996.19;7384812;19;19974;-77
2023/04/28 09:45:05;;;;;;;9.02;6.38;;;;;;;15.07;82.91;97996.13;7387652;19;19944;-77
2023/04/28 09:47:34;;;;;;;6.00;5.32;;;;;;;15.05;82.63;97984.81;7389454;19;19923;-77
2023/04/28 09:50:08;;;;;;;8.77;5.50;;;;;;;15.09;83.01;97984.25;7381508;19;19921;-77
2023/04/28 09:52:35;;;;;;;8.43;6.45;;;;;;;15.14;82.91;97995.16;7386232;19;19926;-78
2023/04/28 09:55:04;;;;;;;7.82;6.28;;;;;;;15.09;82.87;97992.25;7382286;19;19930;-77
2023/04/28 09:57:33;;;;;;;7.50;6.47;;;;;;;15.10;83.15;97988.56;7382953;19;19938;-77
2023/04/28 10:00:04;;;;;;;8.68;7.78;;;;;;;15.18;82.88;97979.59;7380572;19;20256;-77
2023/04/28 10:02:33;;;;;;;8.45;7.15;;;;;;;15.19;83.02;97980.41;7389904;19;19919;-77
2023/04/28 10:05:09;;;;;;;13.70;8.18;;;;;;;15.31;82.92;97990.34;7385427;19;19948;-77
2023/04/28 10:07:37;;;;;;;9.65;7.60;;;;;;;15.00;84.78;97979.25;7388509;19;19926;-77
2023/04/28 10:10:06;;;;;;;9.80;7.65;;;;;;;15.30;84.70;97978.03;7385539;19;20612;-78
2023/04/28 10:12:33;;;;;;;13.52;9.13;;;;;;;15.52;84.52;97980.63;7388262;19;19966;-77
2023/04/28 10:15:00;;;;;;;8.90;7.82;;;;;;;15.72;84.07;97981.56;7382118;19;19921;-77
2023/04/28 10:17:28;;;;;;;10.48;7.80;;;;;;;15.86;83.97;97973.63;7389138;19;19943;-78
2023/04/28 10:19:56;;;;;;;9.02;7.30;;;;;;;15.95;84.00;97975.91;7389100;19;19948;-78
2023/04/28 10:22:50;;;;;;;7.95;6.95;;;;;;;16.01;83.26;97974.31;7394994;19;19998;-78
2023/04/28 10:25:29;;;;;;;8.75;6.97;;;;;;;16.02;83.08;97974.09;7390877;19;19957;-78
2023/04/28 10:27:56;;;;;;;9.07;6.72;;;;;;;16.04;83.32;97976.56;7392820;19;19915;-78
2023/04/28 10:30:24;;;;;;;8.70;6.95;;;;;;;16.06;83.39;97971.88;7386512;19;19926;-78
2023/04/28 10:33:12;;;;;;;7.88;7.07;;;;;;;16.23;82.76;97965.13;7385983;19;20274;-77
2023/04/28 10:35:43;;;;;;;8.25;6.07;;;;;;;16.30;83.16;97969.63;7389766;19;19943;-78
2023/04/28 10:38:12;;;;;;;8.13;5.55;;;;;;;16.53;83.24;97963.94;7390787;19;19927;-78
2023/04/28 10:40:41;;;;;;;7.38;6.43;;;;;;;16.79;83.05;97963.16;7394093;19;19931;-79
2023/04/28 10:43:09;;;;;;;5.32;4.68;;;;;;;16.89;83.25;97972.41;7396084;19;19947;-78
2023/04/28 10:45:48;;;;;;;8.73;6.75;;;;;;;17.14;83.15;97965.59;7394928;19;19923;-78
2023/04/28 10:48:15;;;;;;;5.32;4.65;;;;;;;17.20;82.40;97970.13;7384277;19;19943;-78
2023/04/28 10:51:11;;;;;;;5.85;4.53;;;;;;;17.21;82.12;97969.09;7385145;19;19947;-79
2023/04/28 10:53:42;;;;;;;7.00;6.10;;;;;;;17.20;82.09;97980.84;7392275;19;20451;-78
2023/04/28 10:56:20;;;;;;;5.35;4.85;;;;;;;17.16;82.16;97974.25;7391609;19;20350;-77
2023/04/28 10:58:50;;;;;;;9.07;5.03;;;;;;;17.18;82.78;97980.22;7390849;19;19918;-79
2023/04/28 11:01:23;;;;;;;6.35;4.97;;;;;;;17.20;82.54;97978.16;7388322;19;20447;-77
2023/04/28 11:04:12;;;;;;;8.02;5.43;;;;;;;17.32;82.61;97979.16;7388361;19;19925;-79
2023/04/28 11:06:41;;;;;;;6.55;5.40;;;;;;;17.26;82.59;97986.16;7391293;19;19978;-79
2023/04/28 11:09:11;;;;;;;9.65;5.25;;;;;;;17.31;82.89;97985.53;7392021;19;20642;-78
2023/04/28 11:11:38;;;;;;;6.10;4.78;;;;;;;17.05;82.53;97975.69;7389843;19;19930;-78
2023/04/28 11:14:17;;;;;;;4.75;4.00;;;;;;;17.07;83.22;97976.31;7386346;19;19922;-77
2023/04/28 11:16:54;;;;;;;4.95;3.55;;;;;;;17.21;83.24;97977.94;7387356;19;20403;-77
2023/04/28 11:19:41;;;;;;;4.75;4.03;;;;;;;17.27;82.42;97973.59;7389473;19;19910;-78
2023/04/28 11:22:22;;;;;;;10.25;3.67;;;;;;;17.25;82.48;97981.03;7380695;19;19936;-77
2023/04/28 11:24:59;;;;;;;3.65;2.95;;;;;;;17.26;82.54;97971.97;7376069;19;20578;-77
2023/04/28 11:27:27;;;;;;;4.32;2.80;;;;;;;17.23;82.48;97977.75;7382627;19;19943;-77
2023/04/28 11:29:54;;;;;;;4.35;2.90;;;;;;;17.17;82.43;97982.06;7378362;19;19953;-77
2023/04/28 11:32:29;;;;;;;3.65;3.22;;;;;;;17.09;82.45;97980.44;7380873;19;19939;-77
2023/04/28 11:34:56;;;;;;;4.40;3.50;;;;;;;17.04;82.93;97982.91;7381030;19;19925;-77
2023/04/28 11:37:23;;;;;;;3.53;2.65;;;;;;;17.04;82.55;97979.41;7384228;19;19947;-77
2023/04/28 11:39:50;;;;;;;4.20;3.22;;;;;;;17.09;82.85;97976.94;7376630;19;19926;-76
2023/04/28 11:42:18;;;;;;;4.53;2.90;;;;;;;17.19;83.29;97968.47;7381741;19;19943;-77